Time;durP1;ratioP1;P1;durP2;ratioP2;P2;SDS_P1;SDS_P2;PMS_P1;PMS_P2;Temp;Humidity;BMP_temperature;BMP_pressure;BME280_temperature;BME280_humidity;BME280_pressure;Samples;Min_cycle;Max_cycle;Signal;HPM_P1;HPM_P2
2021/08/18 00:00:47;;;;;;;3.50;2.47;;;17.30;99.90;;;;;;5095544;28;20945;-65
2021/08/18 00:03:14;;;;;;;2.87;2.33;;;17.20;99.90;;;;;;5096009;28;20904;-64
2021/08/18 00:05:40;;;;;;;3.00;2.70;;;17.30;99.90;;;;;;5128445;27;20432;-65
2021/08/18 00:08:08;;;;;;;2.87;2.30;;;17.30;99.90;;;;;;5095863;28;20910;-64
2021/08/18 00:10:34;;;;;;;3.03;1.97;;;17.20;99.90;;;;;;5128206;27;20416;-65
2021/08/18 00:13:00;;;;;;;3.47;2.43;;;17.20;99.90;;;;;;5093995;28;20425;-66
2021/08/18 00:15:26;;;;;;;3.30;2.50;;;17.20;99.90;;;;;;5093839;28;20514;-66
2021/08/18 00:17:54;;;;;;;4.20;2.73;;;17.20;99.90;;;;;;5095686;28;20408;-65
2021/08/18 00:20:20;;;;;;;2.90;2.07;;;17.10;99.90;;;;;;5095405;28;20417;-65
2021/08/18 00:22:46;;;;;;;3.07;2.00;;;17.10;99.90;;;;;;5095307;28;20568;-65
2021/08/18 00:25:12;;;;;;;3.30;2.43;;;17.10;99.90;;;;;;5093782;28;20435;-64
2021/08/18 00:27:37;;;;;;;3.43;2.80;;;17.00;99.90;;;;;;5095397;28;20191;-64
2021/08/18 00:30:04;;;;;;;4.83;1.83;;;17.00;99.90;;;;;;5094887;28;20970;-66
2021/08/18 00:32:30;;;;;;;2.10;1.90;;;16.90;99.90;;;;;;5095282;28;20208;-64
2021/08/18 00:34:56;;;;;;;4.23;2.30;;;17.00;99.90;;;;;;5094723;28;20487;-65
2021/08/18 00:37:21;;;;;;;2.77;2.27;;;17.00;99.90;;;;;;5127804;27;20237;-66
2021/08/18 00:39:47;;;;;;;4.57;2.43;;;16.90;99.90;;;;;;5094797;28;20203;-64
2021/08/18 00:42:15;;;;;;;3.20;2.27;;;16.90;99.90;;;;;;5094728;28;20185;-65
2021/08/18 00:44:41;;;;;;;2.53;2.30;;;16.90;99.90;;;;;;5094743;28;20260;-64
2021/08/18 00:47:06;;;;;;;2.83;2.60;;;16.90;99.90;;;;;;5094861;28;20448;-64
2021/08/18 00:49:33;;;;;;;9.20;2.87;;;16.90;99.90;;;;;;5127529;27;20172;-65
2021/08/18 00:51:59;;;;;;;2.73;2.20;;;16.90;99.90;;;;;;5094802;28;20832;-64
2021/08/18 00:54:25;;;;;;;2.80;2.07;;;16.90;99.90;;;;;;5127375;27;20405;-66
2021/08/18 00:56:52;;;;;;;2.53;2.20;;;17.00;99.90;;;;;;5094614;28;20962;-65
2021/08/18 00:59:18;;;;;;;3.33;2.20;;;16.90;99.90;;;;;;5094387;28;20487;-64
2021/08/18 01:01:44;;;;;;;3.63;2.57;;;17.00;99.90;;;;;;5094624;28;20804;-65
2021/08/18 01:04:11;;;;;;;2.43;2.20;;;17.00;99.90;;;;;;5094417;28;20493;-65
2021/08/18 01:06:40;;;;;;;3.20;2.27;;;17.10;99.90;;;;;;5094356;28;20448;-64
2021/08/18 01:09:11;;;;;;;4.00;2.30;;;17.10;99.90;;;;;;5094310;28;20442;-65
2021/08/18 01:11:38;;;;;;;2.67;2.33;;;17.20;99.90;;;;;;5094200;28;20427;-64
2021/08/18 01:14:04;;;;;;;2.20;2.00;;;17.20;99.90;;;;;;5094247;28;20389;-65
2021/08/18 01:16:38;;;;;;;3.13;2.40;;;17.20;99.90;;;;;;5094011;28;20471;-65
2021/08/18 01:19:04;;;;;;;3.10;2.37;;;17.20;99.90;;;;;;5127029;27;20409;-64
2021/08/18 01:21:34;;;;;;;6.40;2.90;;;17.20;99.90;;;;;;5093962;28;20435;-65
2021/08/18 01:24:01;;;;;;;2.50;2.30;;;17.20;99.90;;;;;;5094045;28;20540;-64
2021/08/18 01:26:27;;;;;;;3.90;2.13;;;17.30;99.90;;;;;;5093987;28;20421;-64
2021/08/18 01:28:52;;;;;;;4.03;2.60;;;17.30;99.90;;;;;;5094055;28;20894;-65
2021/08/18 01:31:18;;;;;;;2.77;1.80;;;17.40;99.90;;;;;;5093791;28;20192;-64
2021/08/18 01:33:44;;;;;;;4.13;2.50;;;17.40;99.90;;;;;;5093954;28;20175;-64
2021/08/18 01:36:10;;;;;;;3.20;2.00;;;17.50;99.90;;;;;;5093747;28;20832;-64
2021/08/18 01:38:36;;;;;;;3.60;1.90;;;17.50;99.90;;;;;;5092850;28;20425;-64
2021/08/18 01:41:01;;;;;;;2.30;2.10;;;17.50;99.90;;;;;;5092426;28;20193;-65
2021/08/18 01:43:27;;;;;;;2.33;2.10;;;17.50;99.90;;;;;;5092838;28;20237;-66
2021/08/18 01:45:53;;;;;;;4.97;2.30;;;17.50;99.90;;;;;;5093720;28;20199;-64
2021/08/18 01:48:25;;;;;;;2.67;2.13;;;17.50;99.90;;;;;;5094252;28;20212;-64
2021/08/18 01:50:53;;;;;;;2.53;2.33;;;17.50;99.90;;;;;;5126695;28;21003;-64
2021/08/18 01:53:27;;;;;;;2.60;1.97;;;17.50;99.90;;;;;;5093590;28;20425;-66
2021/08/18 01:55:54;;;;;;;3.77;2.33;;;17.50;99.90;;;;;;5096491;28;21030;-65
2021/08/18 01:58:20;;;;;;;3.87;2.20;;;17.50;99.90;;;;;;5098472;28;20424;-65
2021/08/18 02:00:46;;;;;;;3.60;2.57;;;17.50;99.90;;;;;;5097839;28;20429;-64
2021/08/18 02:03:11;;;;;;;5.13;2.47;;;17.60;99.90;;;;;;5096806;28;20184;-65
2021/08/18 02:05:37;;;;;;;3.97;2.60;;;17.60;99.90;;;;;;5097763;28;20918;-64
2021/08/18 02:08:04;;;;;;;3.20;2.40;;;17.50;99.90;;;;;;5098124;28;20521;-65
2021/08/18 02:10:29;;;;;;;3.60;2.63;;;17.50;99.90;;;;;;5097780;28;20192;-64
2021/08/18 02:12:55;;;;;;;2.57;2.37;;;17.60;99.90;;;;;;5096520;28;20497;-64
2021/08/18 02:15:28;;;;;;;4.00;2.77;;;17.60;99.90;;;;;;5097553;28;20212;-65
2021/08/18 02:17:54;;;;;;;2.60;2.00;;;17.60;99.90;;;;;;5130760;27;20471;-64
2021/08/18 02:20:23;;;;;;;4.63;2.90;;;17.60;99.90;;;;;;5096076;28;20428;-64
2021/08/18 02:22:49;;;;;;;3.07;2.80;;;17.60;99.90;;;;;;5097539;28;20826;-66
2021/08/18 02:25:15;;;;;;;4.20;2.50;;;17.70;99.90;;;;;;5097345;28;20531;-65
2021/08/18 02:27:40;;;;;;;2.90;2.60;;;17.70;99.90;;;;;;5097719;28;20188;-64
2021/08/18 02:30:09;;;;;;;2.63;2.40;;;17.70;99.90;;;;;;5097254;28;20203;-64
2021/08/18 02:32:34;;;;;;;3.50;2.30;;;17.70;99.90;;;;;;5097295;28;20663;-64
2021/08/18 02:35:00;;;;;;;2.67;2.30;;;17.70;99.90;;;;;;5095879;28;20464;-64
2021/08/18 02:37:26;;;;;;;3.83;2.53;;;17.80;99.90;;;;;;5097577;28;20181;-65
2021/08/18 02:39:52;;;;;;;3.27;2.40;;;17.80;99.90;;;;;;5097050;28;20267;-65
2021/08/18 02:42:17;;;;;;;3.20;2.27;;;17.80;99.90;;;;;;5097303;28;20181;-65
2021/08/18 02:44:43;;;;;;;3.10;2.80;;;17.80;99.90;;;;;;5097065;28;20267;-64
2021/08/18 02:47:09;;;;;;;4.90;2.40;;;17.80;99.90;;;;;;5096021;28;20271;-65
2021/08/18 02:49:34;;;;;;;3.10;2.30;;;17.80;99.90;;;;;;5097084;28;20653;-66
2021/08/18 02:52:00;;;;;;;4.77;2.20;;;17.80;99.90;;;;;;5097034;28;20183;-66
2021/08/18 02:54:26;;;;;;;3.57;2.43;;;17.80;99.90;;;;;;5095604;28;20654;-65
2021/08/18 02:56:52;;;;;;;2.30;2.10;;;17.80;99.90;;;;;;5096825;28;20212;-64
2021/08/18 02:59:18;;;;;;;4.40;2.90;;;17.80;99.90;;;;;;5096771;28;20702;-66
2021/08/18 03:01:44;;;;;;;3.47;3.10;;;17.80;99.90;;;;;;5097023;28;20417;-66
2021/08/18 03:04:10;;;;;;;3.00;2.70;;;17.80;99.90;;;;;;5095418;28;20404;-65
2021/08/18 03:06:35;;;;;;;3.90;2.50;;;17.80;99.90;;;;;;5096483;28;20649;-64
2021/08/18 03:09:01;;;;;;;4.20;2.70;;;17.80;99.90;;;;;;5096578;28;20175;-66
2021/08/18 03:11:26;;;;;;;2.80;2.60;;;17.80;99.90;;;;;;5096425;28;20192;-64
2021/08/18 03:13:52;;;;;;;3.37;2.47;;;17.80;99.90;;;;;;5096625;28;20169;-65
2021/08/18 03:16:18;;;;;;;3.07;2.50;;;17.80;99.90;;;;;;5096148;28;20294;-65
2021/08/18 03:18:43;;;;;;;2.90;2.40;;;17.80;99.90;;;;;;5096462;28;20736;-66
2021/08/18 03:21:09;;;;;;;6.20;2.90;;;17.80;99.90;;;;;;5096312;28;20192;-64
2021/08/18 03:23:35;;;;;;;3.23;2.43;;;17.70;99.90;;;;;;5096459;28;20228;-65
2021/08/18 03:26:00;;;;;;;3.70;2.40;;;17.70;99.90;;;;;;5096160;28;20710;-65
2021/08/18 03:28:26;;;;;;;4.73;2.30;;;17.70;99.90;;;;;;5129297;27;20181;-64
2021/08/18 03:30:51;;;;;;;4.87;2.07;;;17.80;99.90;;;;;;5096159;28;20271;-64
2021/08/18 03:33:17;;;;;;;2.77;2.47;;;17.80;99.90;;;;;;5095001;28;20257;-64
2021/08/18 03:35:43;;;;;;;3.77;2.60;;;17.90;99.90;;;;;;5096026;28;20208;-64
2021/08/18 03:38:08;;;;;;;5.93;2.80;;;17.90;99.90;;;;;;5095946;28;20210;-65
2021/08/18 03:40:34;;;;;;;6.10;3.00;;;18.00;99.90;;;;;;5094710;28;20677;-65
2021/08/18 03:43:01;;;;;;;8.63;2.97;;;18.00;99.90;;;;;;5094796;28;20183;-65
2021/08/18 03:45:27;;;;;;;4.90;2.50;;;18.10;99.90;;;;;;5095859;28;20211;-64
2021/08/18 03:47:52;;;;;;;4.00;2.30;;;18.10;99.90;;;;;;5094710;28;20456;-65
2021/08/18 03:50:18;;;;;;;3.00;2.50;;;18.10;99.90;;;;;;5095729;28;20611;-66
2021/08/18 03:52:43;;;;;;;3.13;2.80;;;18.20;99.90;;;;;;5096203;28;20172;-64
2021/08/18 03:55:11;;;;;;;3.03;2.70;;;18.20;99.90;;;;;;5095520;28;20551;-65
2021/08/18 03:57:37;;;;;;;3.07;2.20;;;18.30;99.90;;;;;;5096043;28;20180;-64
2021/08/18 04:00:04;;;;;;;2.40;2.13;;;18.40;99.90;;;;;;5095555;28;20417;-64
2021/08/18 04:02:30;;;;;;;4.10;2.30;;;18.40;99.90;;;;;;5095652;28;20176;-64
2021/08/18 04:04:55;;;;;;;2.60;2.40;;;18.40;99.90;;;;;;5095488;28;20426;-65
2021/08/18 04:07:21;;;;;;;2.83;2.53;;;18.50;99.90;;;;;;5095645;28;20261;-66
2021/08/18 04:09:46;;;;;;;3.03;2.73;;;18.50;99.90;;;;;;5095511;28;20677;-67
2021/08/18 04:12:12;;;;;;;4.60;4.03;;;18.50;99.90;;;;;;5095579;28;20176;-65
2021/08/18 04:14:38;;;;;;;3.20;2.50;;;18.50;99.90;;;;;;5095451;28;20192;-65
2021/08/18 04:17:04;;;;;;;3.10;2.40;;;18.60;99.90;;;;;;5095068;28;20241;-65
2021/08/18 04:19:29;;;;;;;6.67;2.50;;;18.60;99.90;;;;;;5093715;28;20180;-65
2021/08/18 04:21:55;;;;;;;4.17;3.03;;;18.60;99.90;;;;;;5093880;28;20507;-66
2021/08/18 04:24:20;;;;;;;4.40;3.20;;;18.50;99.90;;;;;;5094970;28;20746;-65
2021/08/18 04:26:46;;;;;;;3.23;2.23;;;18.50;99.90;;;;;;5095208;28;20185;-66
2021/08/18 04:29:12;;;;;;;3.20;2.37;;;18.50;99.90;;;;;;5095038;28;20563;-65
2021/08/18 04:31:37;;;;;;;3.60;2.77;;;18.50;99.90;;;;;;5094964;28;20204;-65
2021/08/18 04:34:03;;;;;;;2.47;2.27;;;18.50;99.90;;;;;;5094952;28;20673;-66
2021/08/18 04:36:28;;;;;;;2.90;2.27;;;18.50;99.90;;;;;;5093427;28;20225;-67
2021/08/18 04:38:54;;;;;;;4.93;2.50;;;18.50;99.90;;;;;;5094961;28;20546;-66
2021/08/18 04:41:19;;;;;;;4.00;3.20;;;18.50;99.90;;;;;;5094547;28;20285;-65
2021/08/18 04:43:45;;;;;;;3.80;2.30;;;18.50;99.90;;;;;;5094796;28;20168;-66
2021/08/18 04:46:11;;;;;;;3.10;2.80;;;18.40;99.90;;;;;;5094652;28;20195;-64
2021/08/18 04:48:36;;;;;;;5.10;2.60;;;18.40;99.90;;;;;;5095157;28;20172;-65
2021/08/18 04:51:02;;;;;;;3.20;2.90;;;18.40;99.90;;;;;;5127179;27;20250;-65
2021/08/18 04:53:28;;;;;;;6.87;2.73;;;18.40;99.90;;;;;;5095377;28;20605;-64
2021/08/18 04:55:54;;;;;;;4.17;2.67;;;18.40;99.90;;;;;;5094429;28;20307;-65
2021/08/18 04:58:19;;;;;;;2.87;2.67;;;18.40;99.90;;;;;;5094915;28;20516;-64
2021/08/18 05:00:45;;;;;;;3.27;2.77;;;18.40;99.90;;;;;;5127329;27;20194;-65
2021/08/18 05:03:14;;;;;;;2.70;2.37;;;18.40;99.90;;;;;;5093424;28;20177;-66
2021/08/18 05:05:40;;;;;;;4.77;2.67;;;18.40;99.90;;;;;;5094371;28;20248;-65
2021/08/18 05:08:07;;;;;;;4.70;2.63;;;18.50;99.90;;;;;;5093131;28;20439;-66
2021/08/18 05:10:34;;;;;;;3.20;2.23;;;18.50;99.90;;;;;;5094253;28;20949;-65
2021/08/18 05:13:00;;;;;;;6.03;2.57;;;18.60;99.90;;;;;;5094644;28;20507;-66
2021/08/18 05:15:26;;;;;;;6.07;2.53;;;18.60;99.90;;;;;;5094142;28;20613;-65
2021/08/18 05:17:52;;;;;;;4.17;2.53;;;18.70;99.90;;;;;;5094627;28;20712;-65
2021/08/18 05:20:19;;;;;;;3.40;2.60;;;18.70;99.90;;;;;;5094077;28;20457;-67
2021/08/18 05:22:46;;;;;;;4.10;2.80;;;18.80;99.90;;;;;;5094221;28;20464;-65
2021/08/18 05:25:13;;;;;;;3.77;2.30;;;18.90;99.90;;;;;;5093976;28;20517;-65
2021/08/18 05:27:39;;;;;;;3.10;2.23;;;18.90;99.90;;;;;;5094276;28;20914;-66
2021/08/18 05:30:08;;;;;;;3.53;2.17;;;19.00;99.90;;;;;;5096098;28;20952;-65
2021/08/18 05:32:35;;;;;;;4.03;2.47;;;19.10;99.90;;;;;;5114717;28;20421;-66
2021/08/18 05:35:00;;;;;;;2.97;2.60;;;19.10;99.90;;;;;;5112891;28;20523;-65
2021/08/18 05:37:26;;;;;;;3.00;2.53;;;19.20;99.90;;;;;;5112741;28;20511;-65
2021/08/18 05:39:51;;;;;;;2.63;2.27;;;19.20;99.90;;;;;;5114213;28;20187;-64
2021/08/18 05:42:17;;;;;;;3.47;2.47;;;19.30;99.90;;;;;;5112969;28;20183;-64
2021/08/18 05:44:43;;;;;;;2.20;1.87;;;19.30;99.90;;;;;;5114149;28;20216;-64
2021/08/18 05:47:08;;;;;;;3.80;2.47;;;19.40;99.90;;;;;;5114350;28;20585;-65
2021/08/18 05:49:34;;;;;;;2.70;2.20;;;19.40;99.90;;;;;;5113756;28;20253;-65
2021/08/18 05:51:59;;;;;;;3.03;2.53;;;19.50;99.90;;;;;;5114195;28;20182;-65
2021/08/18 05:54:25;;;;;;;5.47;2.27;;;19.50;99.90;;;;;;5113757;28;20507;-65
2021/08/18 05:56:52;;;;;;;2.53;2.30;;;19.50;99.90;;;;;;5113510;28;20215;-65
2021/08/18 05:59:18;;;;;;;2.60;1.90;;;19.50;99.90;;;;;;5113671;28;20164;-65
2021/08/18 06:01:43;;;;;;;3.33;2.40;;;19.50;99.90;;;;;;5106219;28;20445;-64
2021/08/18 06:04:09;;;;;;;4.20;2.43;;;19.50;99.90;;;;;;5096722;28;20421;-66
2021/08/18 06:06:34;;;;;;;2.60;2.03;;;19.60;99.90;;;;;;5107192;28;20692;-64
2021/08/18 06:09:00;;;;;;;2.87;2.50;;;19.60;99.90;;;;;;5113818;28;20641;-65
2021/08/18 06:11:26;;;;;;;4.47;2.90;;;19.70;99.90;;;;;;5112071;28;20215;-64
2021/08/18 06:13:52;;;;;;;3.63;2.70;;;19.70;99.90;;;;;;5113689;28;20172;-65
2021/08/18 06:16:17;;;;;;;3.57;2.70;;;19.70;99.90;;;;;;5113421;28;20732;-66
2021/08/18 06:18:43;;;;;;;3.47;3.00;;;19.70;99.90;;;;;;5111732;28;20181;-65
2021/08/18 06:21:08;;;;;;;2.97;2.67;;;19.70;99.90;;;;;;5099975;28;20200;-65
2021/08/18 06:23:35;;;;;;;2.47;2.27;;;19.70;99.90;;;;;;5100304;28;20633;-65
2021/08/18 06:26:00;;;;;;;3.40;2.40;;;19.80;99.90;;;;;;5095266;28;20201;-65
2021/08/18 06:28:26;;;;;;;3.17;2.43;;;19.80;99.90;;;;;;5090362;28;20421;-66
2021/08/18 06:30:53;;;;;;;2.80;2.03;;;19.80;99.90;;;;;;5088684;28;20192;-65
2021/08/18 06:33:18;;;;;;;3.47;2.13;;;19.90;99.90;;;;;;5090327;28;20178;-65
2021/08/18 06:35:44;;;;;;;4.30;2.40;;;19.90;99.90;;;;;;5090780;28;20468;-66
2021/08/18 06:38:10;;;;;;;2.93;2.60;;;19.90;99.90;;;;;;5093865;28;20196;-65
2021/08/18 06:40:36;;;;;;;4.37;2.47;;;19.90;99.90;;;;;;5098095;28;20199;-66
2021/08/18 06:43:01;;;;;;;3.43;2.73;;;19.90;99.90;;;;;;5107900;28;20193;-66
2021/08/18 06:45:29;;;;;;;6.40;2.60;;;19.90;99.90;;;;;;5097169;28;20686;-65
2021/08/18 06:47:55;;;;;;;3.87;2.50;;;19.90;99.90;;;;;;5104269;28;20309;-65
2021/08/18 06:50:21;;;;;;;3.33;2.57;;;19.90;99.90;;;;;;5105158;28;20477;-65
2021/08/18 06:52:46;;;;;;;3.83;3.03;;;19.80;99.90;;;;;;5102612;28;20470;-65
2021/08/18 06:55:12;;;;;;;3.37;2.63;;;19.90;99.90;;;;;;5102920;28;20507;-65
2021/08/18 06:57:38;;;;;;;3.23;2.47;;;19.90;99.90;;;;;;5108018;28;20325;-66
2021/08/18 07:00:05;;;;;;;2.50;2.23;;;19.90;99.90;;;;;;5114836;28;20436;-64
2021/08/18 07:02:30;;;;;;;3.13;2.67;;;20.00;99.90;;;;;;5115076;28;20184;-65
2021/08/18 07:04:56;;;;;;;2.63;2.43;;;20.00;99.90;;;;;;5114101;28;20929;-65
2021/08/18 07:07:22;;;;;;;3.63;2.53;;;20.10;99.90;;;;;;5108544;28;20273;-64
2021/08/18 07:09:47;;;;;;;3.70;2.57;;;20.10;99.90;;;;;;5111881;28;20214;-64
2021/08/18 07:12:13;;;;;;;3.83;2.73;;;20.10;99.90;;;;;;5112579;28;20180;-64
2021/08/18 07:14:39;;;;;;;4.00;2.73;;;20.20;99.90;;;;;;5108530;28;20260;-64
2021/08/18 07:17:04;;;;;;;7.33;2.90;;;20.20;99.90;;;;;;5101275;28;20217;-65
2021/08/18 07:19:30;;;;;;;3.40;2.10;;;20.20;99.90;;;;;;5107593;28;20218;-65
2021/08/18 07:21:56;;;;;;;4.60;2.70;;;20.20;99.90;;;;;;5108627;28;20514;-65
2021/08/18 07:24:21;;;;;;;3.03;2.33;;;20.20;99.90;;;;;;5099841;28;20755;-65
2021/08/18 07:26:49;;;;;;;4.20;2.67;;;20.20;99.90;;;;;;5102387;28;20273;-64
2021/08/18 07:29:14;;;;;;;7.33;4.07;;;20.30;99.90;;;;;;5103165;28;20169;-64
2021/08/18 07:31:40;;;;;;;3.07;2.30;;;20.30;99.90;;;;;;5107308;28;20918;-65
2021/08/18 07:34:05;;;;;;;4.53;2.77;;;20.30;99.90;;;;;;5100901;28;20563;-64
2021/08/18 07:36:31;;;;;;;3.10;2.33;;;20.30;99.90;;;;;;5103903;28;20205;-65
2021/08/18 07:38:57;;;;;;;3.57;2.53;;;20.30;99.90;;;;;;5095940;28;20212;-65
2021/08/18 07:41:22;;;;;;;4.70;3.03;;;20.40;99.90;;;;;;5104507;28;20612;-66
2021/08/18 07:43:48;;;;;;;3.87;2.77;;;20.40;99.90;;;;;;5100402;28;20585;-65
2021/08/18 07:46:14;;;;;;;7.90;3.57;;;20.40;99.90;;;;;;5096677;28;20195;-65
2021/08/18 07:48:39;;;;;;;5.13;3.00;;;20.40;99.90;;;;;;5099069;28;20195;-66
2021/08/18 07:51:05;;;;;;;4.77;3.00;;;20.40;99.90;;;;;;5098710;28;20216;-65
2021/08/18 07:53:31;;;;;;;4.83;3.00;;;20.40;99.90;;;;;;5093764;28;20566;-65
2021/08/18 07:55:57;;;;;;;4.77;3.07;;;20.40;99.90;;;;;;5097228;28;20470;-67
2021/08/18 07:58:22;;;;;;;5.20;3.33;;;20.40;99.90;;;;;;5101023;28;20631;-65
2021/08/18 08:00:48;;;;;;;8.47;3.23;;;20.40;99.90;;;;;;5101455;28;20215;-65
2021/08/18 08:03:13;;;;;;;4.77;3.00;;;20.40;99.90;;;;;;5103987;28;20205;-65
2021/08/18 08:05:39;;;;;;;5.40;3.63;;;20.40;99.90;;;;;;5100564;28;20202;-66
2021/08/18 08:08:05;;;;;;;6.33;3.63;;;20.40;99.90;;;;;;5098963;28;20559;-66
2021/08/18 08:10:31;;;;;;;4.23;2.70;;;20.40;99.90;;;;;;5106365;28;20206;-66
2021/08/18 08:12:57;;;;;;;5.23;2.87;;;20.50;99.90;;;;;;5104780;28;20772;-65
2021/08/18 08:15:22;;;;;;;6.47;3.47;;;20.50;99.90;;;;;;5104103;28;20463;-65
2021/08/18 08:17:48;;;;;;;4.70;3.40;;;20.50;99.90;;;;;;5102789;28;20194;-66
2021/08/18 08:20:14;;;;;;;6.30;3.43;;;20.50;99.90;;;;;;5101449;28;20983;-67
2021/08/18 08:22:40;;;;;;;4.77;2.70;;;20.50;99.90;;;;;;5099062;28;20260;-66
2021/08/18 08:25:06;;;;;;;23.70;4.10;;;20.50;99.90;;;;;;5098176;28;20462;-67
2021/08/18 08:27:32;;;;;;;10.80;3.70;;;20.60;99.90;;;;;;5105553;28;20190;-66
2021/08/18 08:29:57;;;;;;;6.70;3.13;;;20.60;99.90;;;;;;5097015;28;20449;-67
2021/08/18 08:32:23;;;;;;;6.60;3.37;;;20.60;99.90;;;;;;5095840;28;20603;-67
2021/08/18 08:34:49;;;;;;;10.03;3.47;;;20.70;99.90;;;;;;5101495;28;20470;-66
2021/08/18 08:37:17;;;;;;;6.73;3.07;;;20.70;99.90;;;;;;5090994;28;20591;-67
2021/08/18 08:39:43;;;;;;;6.17;3.07;;;20.80;99.90;;;;;;5099227;28;20200;-66
2021/08/18 08:42:10;;;;;;;5.00;3.20;;;20.90;99.90;;;;;;5094671;28;20428;-65
2021/08/18 08:44:38;;;;;;;4.63;3.37;;;20.90;99.90;;;;;;5099329;28;20443;-65
2021/08/18 08:47:07;;;;;;;4.87;2.60;;;21.00;99.90;;;;;;5095739;28;20824;-65
2021/08/18 08:49:33;;;;;;;3.47;3.13;;;21.00;99.90;;;;;;5104234;28;20419;-68
2021/08/18 08:51:59;;;;;;;2.60;2.33;;;21.10;99.90;;;;;;5103930;28;20428;-65
2021/08/18 08:54:24;;;;;;;5.47;3.10;;;21.10;99.90;;;;;;5101226;28;20435;-66
2021/08/18 08:56:50;;;;;;;3.57;2.47;;;21.20;99.90;;;;;;5101756;28;20623;-65
2021/08/18 08:59:15;;;;;;;4.50;3.20;;;21.30;99.90;;;;;;5101440;28;20180;-65
2021/08/18 09:02:03;;;;;;;4.73;3.20;;;21.30;99.90;;;;;;5140253;27;20699;-65
2021/08/18 09:04:31;;;;;;;4.90;3.00;;;21.40;99.90;;;;;;5101054;28;20241;-65
2021/08/18 09:07:09;;;;;;;4.27;3.47;;;21.60;99.90;;;;;;5104347;28;20451;-65
2021/08/18 09:09:36;;;;;;;6.03;3.80;;;21.80;99.90;;;;;;5096577;28;20824;-67
2021/08/18 09:12:14;;;;;;;4.40;2.87;;;22.00;99.90;;;;;;5101314;28;20934;-65
2021/08/18 09:14:41;;;;;;;5.87;3.33;;;22.30;99.90;;;;;;5128987;27;20833;-66
2021/08/18 09:17:29;;;;;;;5.43;2.70;;;22.40;99.90;;;;;;5110567;28;20475;-67
2021/08/18 09:20:00;;;;;;;5.83;3.10;;;22.50;99.90;;;;;;5102029;28;20444;-67
2021/08/18 09:22:26;;;;;;;2.90;2.40;;;22.60;99.90;;;;;;5097291;28;20998;-66
2021/08/18 09:25:18;;;;;;;5.80;3.47;;;22.60;99.90;;;;;;5100507;28;20449;-66
2021/08/18 09:27:47;;;;;;;3.97;2.60;;;22.70;99.90;;;;;;5102529;28;20214;-66
2021/08/18 09:30:30;;;;;;;7.00;3.60;;;22.70;99.90;;;;;;5099757;28;20436;-66
2021/08/18 09:32:58;;;;;;;5.70;3.30;;;22.70;99.90;;;;;;5107975;28;20439;-65
2021/08/18 09:35:25;;;;;;;6.00;3.40;;;22.80;99.90;;;;;;5103906;28;21058;-67
2021/08/18 09:37:56;;;;;;;6.53;3.63;;;22.80;99.90;;;;;;5098112;28;20430;-65
2021/08/18 09:40:31;;;;;;;3.77;2.97;;;22.80;99.90;;;;;;5099578;28;20448;-66
2021/08/18 09:43:12;;;;;;;4.10;2.90;;;22.90;99.90;;;;;;5097714;28;20444;-66
2021/08/18 09:45:46;;;;;;;6.73;3.30;;;22.90;99.90;;;;;;5118276;28;20474;-65
2021/08/18 09:48:17;;;;;;;4.83;3.30;;;23.00;99.50;;;;;;5134618;27;20424;-66
2021/08/18 09:50:50;;;;;;;6.00;3.43;;;23.10;99.90;;;;;;5094769;28;20456;-66
2021/08/18 09:53:24;;;;;;;4.73;3.27;;;23.10;99.30;;;;;;5099873;28;20437;-65
2021/08/18 09:55:58;;;;;;;4.80;3.10;;;23.20;99.30;;;;;;5104588;28;20471;-65
2021/08/18 09:58:28;;;;;;;3.20;2.70;;;23.30;99.90;;;;;;5098940;28;20431;-68
2021/08/18 10:00:55;;;;;;;3.83;2.97;;;23.30;99.90;;;;;;5099551;28;20441;-67
2021/08/18 10:03:21;;;;;;;3.50;2.93;;;23.40;99.90;;;;;;5098666;28;20448;-67
2021/08/18 10:05:50;;;;;;;3.83;3.00;;;23.40;99.90;;;;;;5100248;28;20862;-64
2021/08/18 10:08:18;;;;;;;4.30;2.90;;;23.50;99.90;;;;;;5096084;28;20461;-67
2021/08/18 10:10:44;;;;;;;4.23;2.60;;;23.60;99.10;;;;;;5093508;28;20511;-66
2021/08/18 10:13:11;;;;;;;5.03;3.40;;;23.60;99.00;;;;;;5101091;28;20429;-65
2021/08/18 10:15:38;;;;;;;7.13;2.90;;;23.70;99.20;;;;;;5101111;28;20518;-66
2021/08/18 10:18:08;;;;;;;5.10;2.90;;;23.80;97.70;;;;;;5107051;28;20433;-65
2021/08/18 10:20:35;;;;;;;2.90;2.50;;;23.80;98.50;;;;;;5108767;28;20448;-66
2021/08/18 10:23:05;;;;;;;4.47;2.90;;;23.80;98.00;;;;;;5102818;28;20476;-66
2021/08/18 10:25:51;;;;;;;3.30;2.80;;;23.90;97.40;;;;;;5104594;27;20441;-68
2021/08/18 10:28:17;;;;;;;2.93;2.63;;;23.90;98.30;;;;;;5105584;28;20462;-67
2021/08/18 10:30:51;;;;;;;4.30;3.30;;;23.90;98.50;;;;;;5106058;28;21065;-65
2021/08/18 10:34:02;;;;;;;4.80;3.07;;;23.90;98.30;;;;;;5103385;28;20179;-65
2021/08/18 10:36:43;;;;;;;2.80;2.60;;;23.90;98.30;;;;;;5100045;28;20471;-65
2021/08/18 10:39:18;;;;;;;3.30;2.77;;;23.90;98.20;;;;;;5142639;27;20957;-65
2021/08/18 10:42:12;;;;;;;3.60;2.80;;;24.00;99.00;;;;;;5106280;28;20440;-64
2021/08/18 10:44:42;;;;;;;5.13;3.30;;;24.00;98.50;;;;;;5099275;28;20546;-69
2021/08/18 10:47:26;;;;;;;4.00;2.80;;;24.00;96.80;;;;;;5106894;28;20440;-65
2021/08/18 10:49:57;;;;;;;6.43;3.70;;;23.90;95.40;;;;;;5102463;28;20448;-65
2021/08/18 10:52:29;;;;;;;3.90;3.23;;;23.90;96.80;;;;;;5107042;28;20442;-65
2021/08/18 10:55:17;;;;;;;4.40;3.23;;;23.90;97.60;;;;;;5100540;28;20445;-66
2021/08/18 10:57:52;;;;;;;4.20;3.17;;;23.90;97.80;;;;;;5104635;28;20433;-66
2021/08/18 11:00:35;;;;;;;5.33;3.63;;;24.00;96.80;;;;;;5100949;28;20452;-66
2021/08/18 11:03:22;;;;;;;4.70;3.60;;;24.00;93.90;;;;;;5131095;27;20447;-66
2021/08/18 11:05:51;;;;;;;3.97;3.30;;;24.10;95.60;;;;;;5116298;27;20886;-65
2021/08/18 11:08:27;;;;;;;4.53;3.20;;;24.10;96.10;;;;;;5103909;28;20803;-66
2021/08/18 11:10:55;;;;;;;4.53;2.80;;;24.20;96.70;;;;;;5108417;28;20452;-66
2021/08/18 11:13:39;;;;;;;4.53;3.40;;;24.20;97.10;;;;;;5135944;27;20532;-65
2021/08/18 11:16:15;;;;;;;3.83;2.57;;;24.30;94.60;;;;;;5097868;28;20472;-65
2021/08/18 11:18:47;;;;;;;4.67;3.00;;;24.30;93.90;;;;;;5136081;27;20954;-64
2021/08/18 11:21:17;;;;;;;7.20;3.00;;;24.40;95.80;;;;;;5103738;28;20449;-65
2021/08/18 11:23:52;;;;;;;6.20;2.93;;;24.40;95.00;;;;;;5099776;28;20483;-64
2021/08/18 11:26:21;;;;;;;6.20;3.67;;;24.40;96.00;;;;;;5103908;28;20430;-66
2021/08/18 11:29:02;;;;;;;4.03;2.57;;;24.40;97.30;;;;;;5096933;28;20434;-64
2021/08/18 11:31:41;;;;;;;6.53;3.10;;;24.50;97.00;;;;;;5094809;28;20493;-66
2021/08/18 11:34:19;;;;;;;4.50;3.43;;;24.50;96.20;;;;;;5098602;28;20422;-66
2021/08/18 11:36:44;;;;;;;4.10;3.40;;;24.50;97.50;;;;;;5102339;28;20481;-66
2021/08/18 11:39:11;;;;;;;3.60;3.13;;;24.50;97.40;;;;;;5095348;28;20452;-67
2021/08/18 11:41:42;;;;;;;4.83;3.07;;;24.50;97.40;;;;;;5098157;28;20449;-66
2021/08/18 11:44:26;;;;;;;6.97;3.17;;;24.50;97.50;;;;;;5102608;28;20543;-66
2021/08/18 11:46:53;;;;;;;3.93;2.73;;;24.50;96.60;;;;;;5102027;28;20528;-64
2021/08/18 11:49:24;;;;;;;3.50;3.20;;;24.60;94.50;;;;;;5100464;28;20424;-64
2021/08/18 11:51:49;;;;;;;3.00;2.70;;;24.60;94.20;;;;;;5106849;28;20439;-64
2021/08/18 11:54:15;;;;;;;3.80;2.83;;;24.70;93.60;;;;;;5113925;28;20415;-64
2021/08/18 11:56:41;;;;;;;4.63;3.20;;;24.70;93.10;;;;;;5112627;28;20243;-64
2021/08/18 11:59:07;;;;;;;4.90;3.43;;;24.70;92.30;;;;;;5134772;27;20177;-64
2021/08/18 12:01:33;;;;;;;5.20;3.30;;;24.80;92.80;;;;;;5104190;28;20683;-64
2021/08/18 12:04:01;;;;;;;3.70;2.80;;;24.80;92.80;;;;;;5103986;28;20251;-64
2021/08/18 12:06:35;;;;;;;3.23;2.90;;;24.90;91.70;;;;;;5101759;28;20878;-65
2021/08/18 12:09:04;;;;;;;9.33;3.33;;;24.90;91.40;;;;;;5103927;28;20438;-64
2021/08/18 12:11:35;;;;;;;7.40;3.73;;;24.90;91.80;;;;;;5098229;28;20544;-64
2021/08/18 12:14:13;;;;;;;4.80;3.17;;;25.00;91.00;;;;;;5102694;28;20437;-63
2021/08/18 12:16:39;;;;;;;5.17;3.60;;;25.10;90.50;;;;;;5107583;28;20564;-64
2021/08/18 12:19:23;;;;;;;4.00;3.10;;;25.20;90.00;;;;;;5101726;28;20432;-64
2021/08/18 12:22:13;;;;;;;3.40;2.80;;;25.20;90.70;;;;;;5103161;28;20449;-65
2021/08/18 12:24:45;;;;;;;3.90;3.13;;;25.30;89.90;;;;;;5106846;28;20484;-66
2021/08/18 12:27:14;;;;;;;3.37;3.07;;;25.30;89.00;;;;;;5108762;28;20495;-66
2021/08/18 12:29:40;;;;;;;4.20;3.20;;;25.30;88.60;;;;;;5108748;28;20533;-66
2021/08/18 12:32:11;;;;;;;4.50;3.13;;;25.40;87.00;;;;;;5102397;28;20435;-65
2021/08/18 12:35:02;;;;;;;4.40;3.50;;;25.30;87.60;;;;;;5101505;28;20443;-65
2021/08/18 12:37:38;;;;;;;4.60;3.40;;;25.40;92.00;;;;;;5104579;28;20876;-65
2021/08/18 12:40:10;;;;;;;5.23;3.30;;;25.30;92.30;;;;;;5100668;28;20495;-65
2021/08/18 12:42:36;;;;;;;3.23;2.70;;;25.30;92.50;;;;;;5137294;27;20525;-65
2021/08/18 12:45:15;;;;;;;3.23;2.70;;;25.20;92.60;;;;;;5132812;27;20529;-64
2021/08/18 12:47:53;;;;;;;2.90;2.30;;;25.10;90.00;;;;;;5101768;28;20534;-66
2021/08/18 12:50:36;;;;;;;5.03;2.90;;;25.10;88.90;;;;;;5136317;27;20467;-65